Triple Lake Heights, Illinois
Current Conditions -  °F | °C
As of 10:52 PM on Friday 24 Oct 2014 (Local Time) from KMDH Reporting Station
Clear Clear  
Wind Chill: 54°   Ceiling: Unl
Heat Index: 54°   Visibility: 10mi
Dew Point: 50°   Wind: 5mph
Humidity: 86%   Direction: 170°S
Pressure: 30.04"   Gusts: NA
Location:  37.7248°N, 89.197°W
Report Text: KMDH 250352Z AUTO 17004KT 10SM CLR 12/10 A3004 RMK AO2 SLP173 T01220100
Loading
Personal Weather Stations






























Interactive Weather Map
Tropical Storm Tracking
New forecast layout! Learn more

10-Day Weather Forecast

Advertisements
Track Severe Weather on mobile